Rigby, ID (83442)

1:11 PM MST on December 08, 2016 (GMT -0700)
Labelle | | Change Station
Active Advisory: Winter Weather Advisory

Elev 4865 ft 43.70 °N, 111.89 °W | Updated 7 seconds ago

Partly Cloudy
Partly Cloudy
15.9 °F
Feels Like 16 °F
N
1.0
Wind Variable Wind from East

Today
High -- | Low -- °F
--% Chance of Precip.
Yesterday
High -- | Low -- °F
Precip. -- in
Pressure 30.46 in
Visibility 10.0 miles
Clouds Clear
Windchill 16 °F
Dew Point 6 °F
Humidity 65%
Rainfall 0.00 in
Snow Depth Not available.
7:48 AM 4:50 PM
Waxing Gibbous, 66% visible
METAR KRXE 081953Z AUTO 06007KT 10SM CLR M12/M17 A3021 RMK AO2 SLP315 T11171172
Pressure 30.46 in
Visibility 10.0 miles
Clouds Clear
Windchill 16 °F
Dew Point 6 °F
Humidity 65%
Rainfall 0.00 in
Snow Depth Not available.
7:48 AM 4:50 PM
Waxing Gibbous, 66% visible
METAR KRXE 081953Z AUTO 06007KT 10SM CLR M12/M17 A3021 RMK AO2 SLP315 T11171172

10-Day Weather Forecast

Almanac

Astronomy

Dec. 08, 2016 Rise Set
Actual Time
Civil Twilight
Nautical Twilight
Astronomical Twilight
Moon
Length of Visible Light
Length of Day
Tomorrow will be .
, % of the Moon is Illuminated

Today's Extremes

State Highs State Lows

Community

WunderPhotos

Upload Photos

1,956,277 photos uploaded!

WunderBlog® & News

Nearby

Air Quality

  Air Quality AQ Index Pollutant
Not available.

Snow Depth

Station Depth Elevation

Earthquake Activity

City Distance Mag. Time & Date
Minimum magnitude displayed is 2.5.

Coastal Water Temperatures

Place Temperature

Stations

Nearby Weather Stations

Station Location Temp. Windchill Dew Point Humidity Wind Precip. Elev Updated Type
                   

Watches & Warnings

Winter Weather Advisory
Issued: 3:52 AM MST Dec. 8, 2016 – National Weather Service

... Winter Weather Advisory in effect from 1 PM this afternoon to
11 am MST Friday...

The National Weather Service in Pocatello has issued a Winter
Weather Advisory for snow... which is in effect from 1 PM this
afternoon to 11 am MST Friday.

* Impacts... accumulating snow on on roadways will make for
dangerous travel.

* Timing... this afternoon through Friday morning.

* Snow accumulations... 2 to 4 inches.

* Locations... Burley... Rupert... Heyburn... Idaho
Falls... Rexburg... Pocatello... American Falls.

Precautionary/preparedness actions...

A Winter Weather Advisory for snow means that periods of snow
will cause primarily travel difficulties. Be prepared for snow
covered roads and limited visibilities, and use caution while
driving.